sensor_id;sensor_type;location;lat;lon;timestamp;pressure;altitude;pressure_sealevel;temperature;humidity
80620;BME280;69979;53.682;-2.690;2023-08-12T00:02:19;100778.43;;;16.87;46.78
80620;BME280;69979;53.682;-2.690;2023-08-12T00:04:45;100776.21;;;17.04;46.73
80620;BME280;69979;53.682;-2.690;2023-08-12T00:07:09;100775.98;;;17.30;46.32
80620;BME280;69979;53.682;-2.690;2023-08-12T00:09:35;100770.68;;;16.50;47.52
80620;BME280;69979;53.682;-2.690;2023-08-12T00:12:00;100768.26;;;16.22;48.56
80620;BME280;69979;53.682;-2.690;2023-08-12T00:14:25;100759.29;;;15.81;49.35
80620;BME280;69979;53.682;-2.690;2023-08-12T00:16:51;100759.69;;;16.25;48.12
80620;BME280;69979;53.682;-2.690;2023-08-12T00:19:16;100754.71;;;16.78;47.33
80620;BME280;69979;53.682;-2.690;2023-08-12T00:21:41;100750.64;;;15.81;50.13
80620;BME280;69979;53.682;-2.690;2023-08-12T00:24:07;100748.05;;;15.50;50.67
80620;BME280;69979;53.682;-2.690;2023-08-12T00:26:32;100745.11;;;15.38;50.53
80620;BME280;69979;53.682;-2.690;2023-08-12T00:28:58;100736.23;;;15.99;49.98
80620;BME280;69979;53.682;-2.690;2023-08-12T00:31:23;100741.85;;;16.40;49.27
80620;BME280;69979;53.682;-2.690;2023-08-12T00:33:48;100739.51;;;15.82;49.36
80620;BME280;69979;53.682;-2.690;2023-08-12T00:36:14;100736.55;;;16.28;48.70
80620;BME280;69979;53.682;-2.690;2023-08-12T00:38:39;100734.42;;;15.96;49.15
80620;BME280;69979;53.682;-2.690;2023-08-12T00:41:04;100734.03;;;16.21;49.16
80620;BME280;69979;53.682;-2.690;2023-08-12T00:43:30;100732.86;;;16.04;49.59
80620;BME280;69979;53.682;-2.690;2023-08-12T00:45:55;100728.91;;;16.37;48.87
80620;BME280;69979;53.682;-2.690;2023-08-12T00:48:21;100729.61;;;15.90;49.78
80620;BME280;69979;53.682;-2.690;2023-08-12T00:50:47;100727.43;;;15.78;50.53
80620;BME280;69979;53.682;-2.690;2023-08-12T00:53:13;100725.21;;;16.33;49.71
80620;BME280;69979;53.682;-2.690;2023-08-12T00:55:37;100722.10;;;16.30;49.75
80620;BME280;69979;53.682;-2.690;2023-08-12T00:58:03;100721.62;;;16.02;49.90
80620;BME280;69979;53.682;-2.690;2023-08-12T01:00:27;100718.31;;;16.35;49.41
80620;BME280;69979;53.682;-2.690;2023-08-12T01:02:54;100717.96;;;16.60;49.29
80620;BME280;69979;53.682;-2.690;2023-08-12T01:05:18;100712.36;;;16.37;49.17
80620;BME280;69979;53.682;-2.690;2023-08-12T01:07:44;100709.84;;;16.55;48.66
80620;BME280;69979;53.682;-2.690;2023-08-12T01:10:10;100709.36;;;16.61;48.43
80620;BME280;69979;53.682;-2.690;2023-08-12T01:12:39;100707.53;;;16.88;47.95
80620;BME280;69979;53.682;-2.690;2023-08-12T01:15:05;100704.56;;;16.85;48.43
80620;BME280;69979;53.682;-2.690;2023-08-12T01:17:27;100702.26;;;16.72;48.51
80620;BME280;69979;53.682;-2.690;2023-08-12T01:19:51;100702.44;;;17.24;47.20
80620;BME280;69979;53.682;-2.690;2023-08-12T01:22:16;100699.06;;;16.67;48.54
80620;BME280;69979;53.682;-2.690;2023-08-12T01:24:43;100695.85;;;16.24;49.73
80620;BME280;69979;53.682;-2.690;2023-08-12T01:27:08;100692.45;;;15.87;51.09
80620;BME280;69979;53.682;-2.690;2023-08-12T01:29:33;100687.06;;;16.56;48.96
80620;BME280;69979;53.682;-2.690;2023-08-12T01:32:07;100682.54;;;16.33;49.41
80620;BME280;69979;53.682;-2.690;2023-08-12T01:34:28;100675.55;;;16.60;48.61
80620;BME280;69979;53.682;-2.690;2023-08-12T01:36:54;100679.45;;;16.87;48.54
80620;BME280;69979;53.682;-2.690;2023-08-12T01:39:14;100675.90;;;17.07;48.20
80620;BME280;69979;53.682;-2.690;2023-08-12T01:41:40;100675.26;;;16.98;48.18
80620;BME280;69979;53.682;-2.690;2023-08-12T01:44:06;100675.46;;;16.47;49.39
80620;BME280;69979;53.682;-2.690;2023-08-12T01:46:31;100667.78;;;16.84;49.23
80620;BME280;69979;53.682;-2.690;2023-08-12T01:48:56;100666.90;;;16.48;49.83
80620;BME280;69979;53.682;-2.690;2023-08-12T01:51:21;100663.00;;;16.26;49.76
80620;BME280;69979;53.682;-2.690;2023-08-12T01:53:47;100665.03;;;16.62;49.15
80620;BME280;69979;53.682;-2.690;2023-08-12T01:56:12;100661.53;;;16.82;48.79
80620;BME280;69979;53.682;-2.690;2023-08-12T01:58:38;100662.18;;;16.36;49.70
80620;BME280;69979;53.682;-2.690;2023-08-12T02:01:03;100660.30;;;16.24;50.42
80620;BME280;69979;53.682;-2.690;2023-08-12T02:03:29;100661.99;;;16.69;50.21
80620;BME280;69979;53.682;-2.690;2023-08-12T02:05:54;100662.88;;;16.15;50.24
80620;BME280;69979;53.682;-2.690;2023-08-12T02:08:19;100654.97;;;16.50;49.60
80620;BME280;69979;53.682;-2.690;2023-08-12T02:10:44;100651.26;;;16.10;50.35
80620;BME280;69979;53.682;-2.690;2023-08-12T02:13:11;100645.17;;;16.35;50.75
80620;BME280;69979;53.682;-2.690;2023-08-12T02:15:35;100640.29;;;15.93;51.08
80620;BME280;69979;53.682;-2.690;2023-08-12T02:18:01;100641.47;;;16.95;48.95
80620;BME280;69979;53.682;-2.690;2023-08-12T02:20:26;100641.23;;;16.78;48.87
80620;BME280;69979;53.682;-2.690;2023-08-12T02:22:52;100639.30;;;16.42;49.62
80620;BME280;69979;53.682;-2.690;2023-08-12T02:25:17;100633.56;;;15.69;51.01
80620;BME280;69979;53.682;-2.690;2023-08-12T02:27:42;100628.62;;;15.64;51.92
80620;BME280;69979;53.682;-2.690;2023-08-12T02:30:08;100621.81;;;15.78;51.23
80620;BME280;69979;53.682;-2.690;2023-08-12T02:32:33;100618.10;;;16.01;51.15
80620;BME280;69979;53.682;-2.690;2023-08-12T02:34:58;100620.92;;;16.40;50.07
80620;BME280;69979;53.682;-2.690;2023-08-12T02:37:23;100626.46;;;16.57;49.59
80620;BME280;69979;53.682;-2.690;2023-08-12T02:39:49;100630.43;;;16.63;49.47
80620;BME280;69979;53.682;-2.690;2023-08-12T02:42:14;100631.66;;;16.84;48.61
80620;BME280;69979;53.682;-2.690;2023-08-12T02:44:39;100626.42;;;16.39;49.37
80620;BME280;69979;53.682;-2.690;2023-08-12T02:47:05;100623.42;;;16.35;49.29
80620;BME280;69979;53.682;-2.690;2023-08-12T02:49:30;100618.48;;;16.29;49.39
80620;BME280;69979;53.682;-2.690;2023-08-12T02:51:55;100624.02;;;16.10;50.09
80620;BME280;69979;53.682;-2.690;2023-08-12T02:54:21;100622.90;;;16.14;49.55
80620;BME280;69979;53.682;-2.690;2023-08-12T02:56:46;100626.12;;;16.02;49.62
80620;BME280;69979;53.682;-2.690;2023-08-12T02:59:11;100621.88;;;15.92;49.78
80620;BME280;69979;53.682;-2.690;2023-08-12T03:01:37;100619.72;;;15.78;50.38
80620;BME280;69979;53.682;-2.690;2023-08-12T03:04:03;100614.04;;;15.49;50.92
80620;BME280;69979;53.682;-2.690;2023-08-12T03:06:28;100610.73;;;14.73;52.75
80620;BME280;69979;53.682;-2.690;2023-08-12T03:08:54;100604.60;;;15.13;52.08
80620;BME280;69979;53.682;-2.690;2023-08-12T03:11:19;100596.84;;;15.39;51.70
80620;BME280;69979;53.682;-2.690;2023-08-12T03:13:45;100596.57;;;14.43;53.39
80620;BME280;69979;53.682;-2.690;2023-08-12T03:16:11;100592.35;;;14.99;53.54
80620;BME280;69979;53.682;-2.690;2023-08-12T03:18:36;100589.32;;;15.10;53.20
80620;BME280;69979;53.682;-2.690;2023-08-12T03:21:06;100588.49;;;14.94;53.63
80620;BME280;69979;53.682;-2.690;2023-08-12T03:23:27;100580.71;;;14.44;53.46
80620;BME280;69979;53.682;-2.690;2023-08-12T03:25:52;100581.32;;;15.16;53.24
80620;BME280;69979;53.682;-2.690;2023-08-12T03:28:17;100580.99;;;14.83;53.32
80620;BME280;69979;53.682;-2.690;2023-08-12T03:33:08;100570.74;;;15.86;51.12
80620;BME280;69979;53.682;-2.690;2023-08-12T03:35:34;100565.00;;;15.87;50.94
80620;BME280;69979;53.682;-2.690;2023-08-12T03:37:59;100561.91;;;15.46;51.83
80620;BME280;69979;53.682;-2.690;2023-08-12T03:40:24;100553.93;;;14.52;54.47
80620;BME280;69979;53.682;-2.690;2023-08-12T03:42:50;100548.14;;;14.56;54.41
80620;BME280;69979;53.682;-2.690;2023-08-12T03:45:15;100554.18;;;15.32;52.68
80620;BME280;69979;53.682;-2.690;2023-08-12T03:47:41;100552.40;;;14.07;55.45
80620;BME280;69979;53.682;-2.690;2023-08-12T03:50:07;100552.61;;;14.63;54.49
80620;BME280;69979;53.682;-2.690;2023-08-12T03:52:31;100550.32;;;15.34;52.26
80620;BME280;69979;53.682;-2.690;2023-08-12T03:54:57;100547.36;;;15.49;52.33
80620;BME280;69979;53.682;-2.690;2023-08-12T03:57:22;100542.94;;;14.97;52.85
80620;BME280;69979;53.682;-2.690;2023-08-12T03:59:47;100538.80;;;14.56;54.62
80620;BME280;69979;53.682;-2.690;2023-08-12T04:02:13;100540.49;;;14.14;55.71
80620;BME280;69979;53.682;-2.690;2023-08-12T04:04:38;100541.82;;;15.08;54.57
80620;BME280;69979;53.682;-2.690;2023-08-12T04:07:04;100539.64;;;14.98;54.18
80620;BME280;69979;53.682;-2.690;2023-08-12T04:09:29;100542.07;;;14.31;55.39
80620;BME280;69979;53.682;-2.690;2023-08-12T04:11:54;100538.83;;;15.11;53.70
80620;BME280;69979;53.682;-2.690;2023-08-12T04:14:19;100543.03;;;14.44;53.91
80620;BME280;69979;53.682;-2.690;2023-08-12T04:16:45;100531.43;;;14.84;54.05
80620;BME280;69979;53.682;-2.690;2023-08-12T04:19:10;100533.38;;;15.09;53.67
80620;BME280;69979;53.682;-2.690;2023-08-12T04:21:36;100533.65;;;14.36;55.02
80620;BME280;69979;53.682;-2.690;2023-08-12T04:24:01;100525.95;;;14.28;55.53
80620;BME280;69979;53.682;-2.690;2023-08-12T04:26:26;100531.14;;;15.17;53.46
80620;BME280;69979;53.682;-2.690;2023-08-12T04:28:52;100537.31;;;15.18;53.42
80620;BME280;69979;53.682;-2.690;2023-08-12T04:31:17;100527.07;;;14.88;53.52
80620;BME280;69979;53.682;-2.690;2023-08-12T04:33:42;100522.05;;;15.21;53.02
80620;BME280;69979;53.682;-2.690;2023-08-12T04:36:08;100524.71;;;15.49;52.19
80620;BME280;69979;53.682;-2.690;2023-08-12T04:38:33;100525.81;;;15.08;53.62
80620;BME280;69979;53.682;-2.690;2023-08-12T04:40:59;100515.41;;;15.50;53.11
80620;BME280;69979;53.682;-2.690;2023-08-12T04:43:24;100511.30;;;15.24;52.95
80620;BME280;69979;53.682;-2.690;2023-08-12T04:45:49;100509.83;;;15.32;53.20
80620;BME280;69979;53.682;-2.690;2023-08-12T04:48:15;100508.05;;;15.08;53.63
80620;BME280;69979;53.682;-2.690;2023-08-12T04:50:42;100509.40;;;14.72;54.40
80620;BME280;69979;53.682;-2.690;2023-08-12T04:53:06;100511.84;;;15.40;52.35
80620;BME280;69979;53.682;-2.690;2023-08-12T04:55:31;100506.19;;;15.21;52.28
80620;BME280;69979;53.682;-2.690;2023-08-12T04:57:57;100504.01;;;14.38;53.93
80620;BME280;69979;53.682;-2.690;2023-08-12T05:00:22;100506.94;;;15.55;52.64
80620;BME280;69979;53.682;-2.690;2023-08-12T05:02:48;100503.53;;;14.49;54.10
80620;BME280;69979;53.682;-2.690;2023-08-12T05:05:14;100503.71;;;14.97;54.52
80620;BME280;69979;53.682;-2.690;2023-08-12T05:07:38;100497.42;;;14.40;55.00
80620;BME280;69979;53.682;-2.690;2023-08-12T05:10:04;100494.38;;;13.85;56.16
80620;BME280;69979;53.682;-2.690;2023-08-12T05:12:29;100502.07;;;14.47;55.35
80620;BME280;69979;53.682;-2.690;2023-08-12T05:14:55;100498.89;;;14.07;56.23
80620;BME280;69979;53.682;-2.690;2023-08-12T05:17:20;100498.79;;;14.15;56.13
80620;BME280;69979;53.682;-2.690;2023-08-12T05:19:45;100492.56;;;14.03;55.83
80620;BME280;69979;53.682;-2.690;2023-08-12T05:22:10;100496.84;;;14.47;55.67
80620;BME280;69979;53.682;-2.690;2023-08-12T05:24:36;100489.37;;;14.75;54.71
80620;BME280;69979;53.682;-2.690;2023-08-12T05:27:01;100487.80;;;14.78;54.34
80620;BME280;69979;53.682;-2.690;2023-08-12T05:29:26;100488.22;;;14.68;54.57
80620;BME280;69979;53.682;-2.690;2023-08-12T05:31:53;100489.94;;;14.70;54.56
80620;BME280;69979;53.682;-2.690;2023-08-12T05:34:17;100490.05;;;15.06;54.08
80620;BME280;69979;53.682;-2.690;2023-08-12T05:36:43;100482.25;;;15.00;54.10
80620;BME280;69979;53.682;-2.690;2023-08-12T05:39:08;100481.97;;;15.77;51.78
80620;BME280;69979;53.682;-2.690;2023-08-12T05:41:33;100476.14;;;14.64;54.18
80620;BME280;69979;53.682;-2.690;2023-08-12T05:43:59;100473.94;;;15.09;54.01
80620;BME280;69979;53.682;-2.690;2023-08-12T05:46:24;100474.42;;;14.88;54.50
80620;BME280;69979;53.682;-2.690;2023-08-12T05:48:50;100466.92;;;14.12;56.43
80620;BME280;69979;53.682;-2.690;2023-08-12T05:51:15;100468.45;;;14.50;56.01
80620;BME280;69979;53.682;-2.690;2023-08-12T05:53:41;100467.63;;;14.22;56.12
80620;BME280;69979;53.682;-2.690;2023-08-12T05:56:06;100469.48;;;14.05;56.51
80620;BME280;69979;53.682;-2.690;2023-08-12T05:58:31;100469.08;;;14.70;55.75
80620;BME280;69979;53.682;-2.690;2023-08-12T06:00:57;100467.03;;;14.66;55.96
80620;BME280;69979;53.682;-2.690;2023-08-12T06:03:22;100464.22;;;15.05;54.35
80620;BME280;69979;53.682;-2.690;2023-08-12T06:05:48;100463.30;;;14.65;55.15
80620;BME280;69979;53.682;-2.690;2023-08-12T06:08:13;100462.82;;;14.52;55.92
80620;BME280;69979;53.682;-2.690;2023-08-12T06:10:38;100459.44;;;15.29;54.53
80620;BME280;69979;53.682;-2.690;2023-08-12T06:13:04;100459.07;;;14.58;56.46
80620;BME280;69979;53.682;-2.690;2023-08-12T06:15:29;100460.54;;;14.36;56.57
80620;BME280;69979;53.682;-2.690;2023-08-12T06:17:54;100457.31;;;14.23;57.46
80620;BME280;69979;53.682;-2.690;2023-08-12T06:20:20;100460.88;;;14.05;58.07
80620;BME280;69979;53.682;-2.690;2023-08-12T06:22:45;100455.81;;;14.36;58.03
80620;BME280;69979;53.682;-2.690;2023-08-12T06:25:10;100453.14;;;14.19;58.35
80620;BME280;69979;53.682;-2.690;2023-08-12T06:27:36;100449.79;;;14.46;58.04
80620;BME280;69979;53.682;-2.690;2023-08-12T06:30:01;100447.98;;;14.80;57.26
80620;BME280;69979;53.682;-2.690;2023-08-12T06:32:27;100445.97;;;13.84;58.96
80620;BME280;69979;53.682;-2.690;2023-08-12T06:34:52;100440.64;;;14.30;58.61
80620;BME280;69979;53.682;-2.690;2023-08-12T06:37:18;100447.00;;;13.72;59.39
80620;BME280;69979;53.682;-2.690;2023-08-12T06:39:43;100444.91;;;13.51;60.51
80620;BME280;69979;53.682;-2.690;2023-08-12T06:42:08;100442.06;;;13.78;59.79
80620;BME280;69979;53.682;-2.690;2023-08-12T06:44:34;100443.47;;;14.26;57.95
80620;BME280;69979;53.682;-2.690;2023-08-12T06:46:59;100445.71;;;14.73;56.97
80620;BME280;69979;53.682;-2.690;2023-08-12T06:49:24;100435.73;;;14.51;57.29
80620;BME280;69979;53.682;-2.690;2023-08-12T06:51:50;100434.31;;;14.72;57.11
80620;BME280;69979;53.682;-2.690;2023-08-12T06:54:15;100439.88;;;14.65;57.29
80620;BME280;69979;53.682;-2.690;2023-08-12T06:56:41;100440.70;;;14.35;58.23
80620;BME280;69979;53.682;-2.690;2023-08-12T06:59:06;100442.12;;;14.25;58.58
80620;BME280;69979;53.682;-2.690;2023-08-12T07:01:32;100441.61;;;14.61;57.66
80620;BME280;69979;53.682;-2.690;2023-08-12T07:03:57;100438.01;;;14.83;57.37
80620;BME280;69979;53.682;-2.690;2023-08-12T07:06:22;100436.51;;;14.46;57.53
80620;BME280;69979;53.682;-2.690;2023-08-12T07:08:48;100434.80;;;15.23;56.11
80620;BME280;69979;53.682;-2.690;2023-08-12T07:11:14;100437.42;;;14.89;56.73
80620;BME280;69979;53.682;-2.690;2023-08-12T07:13:38;100438.68;;;14.80;56.51
80620;BME280;69979;53.682;-2.690;2023-08-12T07:16:04;100436.23;;;14.94;55.86
80620;BME280;69979;53.682;-2.690;2023-08-12T07:18:29;100440.06;;;15.09;55.91
80620;BME280;69979;53.682;-2.690;2023-08-12T07:20:55;100434.58;;;15.44;55.59
80620;BME280;69979;53.682;-2.690;2023-08-12T07:23:20;100430.27;;;14.72;56.73
80620;BME280;69979;53.682;-2.690;2023-08-12T07:25:46;100426.81;;;15.53;55.69
80620;BME280;69979;53.682;-2.690;2023-08-12T07:28:11;100427.79;;;14.48;57.87
80620;BME280;69979;53.682;-2.690;2023-08-12T07:30:37;100428.27;;;14.93;56.96
80620;BME280;69979;53.682;-2.690;2023-08-12T07:33:02;100428.56;;;14.86;56.39
80620;BME280;69979;53.682;-2.690;2023-08-12T07:35:28;100424.71;;;14.74;56.78
80620;BME280;69979;53.682;-2.690;2023-08-12T07:37:53;100415.69;;;15.30;55.10
80620;BME280;69979;53.682;-2.690;2023-08-12T07:40:18;100421.28;;;15.47;55.82
80620;BME280;69979;53.682;-2.690;2023-08-12T07:42:43;100422.88;;;15.22;56.37
80620;BME280;69979;53.682;-2.690;2023-08-12T07:45:09;100424.45;;;16.06;53.98
80620;BME280;69979;53.682;-2.690;2023-08-12T07:47:34;100428.62;;;15.80;54.49
80620;BME280;69979;53.682;-2.690;2023-08-12T07:49:59;100426.78;;;16.52;52.85
80620;BME280;69979;53.682;-2.690;2023-08-12T07:52:25;100418.57;;;16.11;53.89
80620;BME280;69979;53.682;-2.690;2023-08-12T07:54:50;100421.73;;;15.82;54.34
80620;BME280;69979;53.682;-2.690;2023-08-12T07:57:15;100419.85;;;15.38;56.49
80620;BME280;69979;53.682;-2.690;2023-08-12T07:59:41;100416.46;;;15.09;57.94
80620;BME280;69979;53.682;-2.690;2023-08-12T08:02:06;100417.01;;;15.16;59.24
80620;BME280;69979;53.682;-2.690;2023-08-12T08:04:32;100414.94;;;15.37;58.12
80620;BME280;69979;53.682;-2.690;2023-08-12T08:06:57;100416.87;;;15.99;56.51
80620;BME280;69979;53.682;-2.690;2023-08-12T08:09:22;100419.58;;;16.48;55.02
80620;BME280;69979;53.682;-2.690;2023-08-12T08:11:48;100417.09;;;15.41;57.19
80620;BME280;69979;53.682;-2.690;2023-08-12T08:14:14;100418.63;;;16.02;56.84
80620;BME280;69979;53.682;-2.690;2023-08-12T08:16:39;100421.43;;;16.06;56.73
80620;BME280;69979;53.682;-2.690;2023-08-12T08:19:04;100421.46;;;15.69;57.28
80620;BME280;69979;53.682;-2.690;2023-08-12T08:21:30;100425.71;;;15.70;57.65
80620;BME280;69979;53.682;-2.690;2023-08-12T08:23:55;100430.49;;;16.34;56.51
80620;BME280;69979;53.682;-2.690;2023-08-12T08:26:21;100426.16;;;15.86;56.71
80620;BME280;69979;53.682;-2.690;2023-08-12T08:28:46;100425.21;;;15.37;58.52
80620;BME280;69979;53.682;-2.690;2023-08-12T08:31:11;100422.91;;;15.84;57.46
80620;BME280;69979;53.682;-2.690;2023-08-12T08:33:37;100423.93;;;15.81;57.70
80620;BME280;69979;53.682;-2.690;2023-08-12T08:36:03;100424.98;;;16.04;56.56
80620;BME280;69979;53.682;-2.690;2023-08-12T08:38:28;100414.51;;;15.22;58.49
80620;BME280;69979;53.682;-2.690;2023-08-12T08:40:53;100414.14;;;15.52;58.25
80620;BME280;69979;53.682;-2.690;2023-08-12T08:43:21;100415.27;;;15.61;57.93
80620;BME280;69979;53.682;-2.690;2023-08-12T08:45:44;100413.34;;;16.49;56.39
80620;BME280;69979;53.682;-2.690;2023-08-12T08:48:10;100414.07;;;16.85;55.21
80620;BME280;69979;53.682;-2.690;2023-08-12T08:50:35;100413.23;;;16.67;55.06
80620;BME280;69979;53.682;-2.690;2023-08-12T08:53:01;100416.22;;;16.83;55.10
80620;BME280;69979;53.682;-2.690;2023-08-12T08:55:26;100411.81;;;16.41;55.14
80620;BME280;69979;53.682;-2.690;2023-08-12T08:57:51;100402.38;;;16.91;54.80
80620;BME280;69979;53.682;-2.690;2023-08-12T09:00:16;100404.55;;;16.73;55.36
80620;BME280;69979;53.682;-2.690;2023-08-12T09:02:44;100409.11;;;16.39;56.82
80620;BME280;69979;53.682;-2.690;2023-08-12T09:05:08;100404.25;;;16.22;56.71
80620;BME280;69979;53.682;-2.690;2023-08-12T09:07:32;100402.21;;;16.25;56.07
80620;BME280;69979;53.682;-2.690;2023-08-12T09:09:58;100406.36;;;16.46;56.09
80620;BME280;69979;53.682;-2.690;2023-08-12T09:12:24;100400.17;;;16.25;55.99
80620;BME280;69979;53.682;-2.690;2023-08-12T09:14:48;100394.60;;;15.52;58.41
80620;BME280;69979;53.682;-2.690;2023-08-12T09:17:14;100395.15;;;16.63;56.27
80620;BME280;69979;53.682;-2.690;2023-08-12T09:19:39;100393.87;;;16.96;55.96
80620;BME280;69979;53.682;-2.690;2023-08-12T09:22:05;100389.52;;;17.13;54.80
80620;BME280;69979;53.682;-2.690;2023-08-12T09:24:30;100379.64;;;17.45;54.41
80620;BME280;69979;53.682;-2.690;2023-08-12T09:26:55;100385.94;;;16.49;56.74
80620;BME280;69979;53.682;-2.690;2023-08-12T09:29:22;100383.45;;;16.37;55.95
80620;BME280;69979;53.682;-2.690;2023-08-12T09:31:46;100380.96;;;16.93;55.84
80620;BME280;69979;53.682;-2.690;2023-08-12T09:34:11;100381.67;;;17.05;56.36
80620;BME280;69979;53.682;-2.690;2023-08-12T09:36:36;100386.40;;;17.07;55.17
80620;BME280;69979;53.682;-2.690;2023-08-12T09:39:06;100390.63;;;17.43;54.41
80620;BME280;69979;53.682;-2.690;2023-08-12T09:41:28;100397.00;;;17.32;54.55
80620;BME280;69979;53.682;-2.690;2023-08-12T09:43:53;100399.21;;;17.78;52.11
80620;BME280;69979;53.682;-2.690;2023-08-12T09:46:21;100402.22;;;17.27;53.82
80620;BME280;69979;53.682;-2.690;2023-08-12T09:48:43;100407.34;;;16.95;54.52
80620;BME280;69979;53.682;-2.690;2023-08-12T09:51:09;100413.50;;;16.82;55.37
80620;BME280;69979;53.682;-2.690;2023-08-12T09:53:34;100430.69;;;16.68;56.83
80620;BME280;69979;53.682;-2.690;2023-08-12T09:56:05;100429.44;;;16.08;59.46
80620;BME280;69979;53.682;-2.690;2023-08-12T09:58:25;100438.23;;;16.45;58.82
80620;BME280;69979;53.682;-2.690;2023-08-12T10:00:51;100434.72;;;16.13;58.88
80620;BME280;69979;53.682;-2.690;2023-08-12T10:03:18;100442.37;;;16.63;58.82
80620;BME280;69979;53.682;-2.690;2023-08-12T10:05:42;100441.96;;;15.76;59.94
80620;BME280;69979;53.682;-2.690;2023-08-12T10:08:07;100436.23;;;16.22;59.92
80620;BME280;69979;53.682;-2.690;2023-08-12T10:10:35;100440.89;;;16.75;58.28
80620;BME280;69979;53.682;-2.690;2023-08-12T10:12:58;100433.24;;;16.64;58.37
80620;BME280;69979;53.682;-2.690;2023-08-12T10:15:23;100435.08;;;16.15;58.83
80620;BME280;69979;53.682;-2.690;2023-08-12T10:17:49;100437.26;;;16.44;58.22
80620;BME280;69979;53.682;-2.690;2023-08-12T10:20:20;100436.37;;;16.25;58.17
80620;BME280;69979;53.682;-2.690;2023-08-12T10:22:40;100441.41;;;16.20;57.22
80620;BME280;69979;53.682;-2.690;2023-08-12T10:25:08;100446.97;;;16.69;57.32
80620;BME280;69979;53.682;-2.690;2023-08-12T10:27:30;100440.94;;;16.57;57.81
80620;BME280;69979;53.682;-2.690;2023-08-12T10:29:56;100435.19;;;16.10;59.06
80620;BME280;69979;53.682;-2.690;2023-08-12T10:32:21;100436.42;;;16.86;57.46
80620;BME280;69979;53.682;-2.690;2023-08-12T10:34:54;100428.10;;;16.84;55.40
80620;BME280;69979;53.682;-2.690;2023-08-12T10:37:12;100430.17;;;17.43;54.12
80620;BME280;69979;53.682;-2.690;2023-08-12T10:39:37;100430.65;;;17.65;54.11
80620;BME280;69979;53.682;-2.690;2023-08-12T10:42:03;100429.89;;;17.91;53.15
80620;BME280;69979;53.682;-2.690;2023-08-12T10:44:38;100426.28;;;17.34;54.12
80620;BME280;69979;53.682;-2.690;2023-08-12T10:46:54;100428.11;;;18.03;52.35
80620;BME280;69979;53.682;-2.690;2023-08-12T10:49:20;100425.66;;;18.01;53.54
80620;BME280;69979;53.682;-2.690;2023-08-12T10:51:45;100422.95;;;17.85;53.71
80620;BME280;69979;53.682;-2.690;2023-08-12T10:54:15;100423.30;;;17.48;53.68
80620;BME280;69979;53.682;-2.690;2023-08-12T10:59:00;100416.84;;;17.09;54.43
80620;BME280;69979;53.682;-2.690;2023-08-12T11:01:25;100417.87;;;17.89;52.61
80620;BME280;69979;53.682;-2.690;2023-08-12T11:03:51;100415.95;;;17.34;53.69
80620;BME280;69979;53.682;-2.690;2023-08-12T11:06:16;100420.30;;;17.35;54.09
80620;BME280;69979;53.682;-2.690;2023-08-12T11:08:46;100415.12;;;16.82;54.91
80620;BME280;69979;53.682;-2.690;2023-08-12T11:13:32;100412.90;;;17.40;53.41
80620;BME280;69979;53.682;-2.690;2023-08-12T11:16:06;100416.94;;;17.34;53.98
80620;BME280;69979;53.682;-2.690;2023-08-12T11:18:23;100420.19;;;16.74;54.83
80620;BME280;69979;53.682;-2.690;2023-08-12T11:20:49;100414.09;;;16.98;54.74
80620;BME280;69979;53.682;-2.690;2023-08-12T11:23:14;100411.26;;;17.05;54.33
80620;BME280;69979;53.682;-2.690;2023-08-12T11:25:41;100418.37;;;16.76;53.85
80620;BME280;69979;53.682;-2.690;2023-08-12T11:28:05;100418.88;;;16.52;54.93
80620;BME280;69979;53.682;-2.690;2023-08-12T11:30:30;100414.63;;;16.20;56.61
80620;BME280;69979;53.682;-2.690;2023-08-12T11:32:55;100415.12;;;16.18;55.85
80620;BME280;69979;53.682;-2.690;2023-08-12T11:35:22;100416.28;;;16.03;55.50
80620;BME280;69979;53.682;-2.690;2023-08-12T11:37:47;100413.97;;;16.09;55.65
80620;BME280;69979;53.682;-2.690;2023-08-12T11:40:12;100412.29;;;16.93;53.27
80620;BME280;69979;53.682;-2.690;2023-08-12T11:42:37;100410.38;;;17.29;52.97
80620;BME280;69979;53.682;-2.690;2023-08-12T11:45:02;100414.87;;;16.81;53.66
80620;BME280;69979;53.682;-2.690;2023-08-12T11:47:27;100414.40;;;17.37;52.62
80620;BME280;69979;53.682;-2.690;2023-08-12T11:49:53;100412.24;;;17.58;52.38
80620;BME280;69979;53.682;-2.690;2023-08-12T11:52:18;100412.28;;;17.68;51.51
80620;BME280;69979;53.682;-2.690;2023-08-12T11:54:43;100420.70;;;17.86;51.25
80620;BME280;69979;53.682;-2.690;2023-08-12T11:57:09;100415.36;;;17.47;52.15
80620;BME280;69979;53.682;-2.690;2023-08-12T11:59:34;100414.63;;;17.71;51.63
80620;BME280;69979;53.682;-2.690;2023-08-12T12:02:02;100422.20;;;17.31;52.23
80620;BME280;69979;53.682;-2.690;2023-08-12T12:04:25;100423.37;;;17.82;51.94
80620;BME280;69979;53.682;-2.690;2023-08-12T12:06:50;100420.63;;;17.51;52.50
80620;BME280;69979;53.682;-2.690;2023-08-12T12:09:16;100424.20;;;17.14;52.30
80620;BME280;69979;53.682;-2.690;2023-08-12T12:11:41;100424.59;;;17.44;52.53
80620;BME280;69979;53.682;-2.690;2023-08-12T12:14:08;100437.67;;;16.87;53.04
80620;BME280;69979;53.682;-2.690;2023-08-12T12:16:39;100434.34;;;16.25;54.07
80620;BME280;69979;53.682;-2.690;2023-08-12T12:18:58;100428.04;;;16.33;54.34
80620;BME280;69979;53.682;-2.690;2023-08-12T12:21:22;100427.07;;;17.15;53.19
80620;BME280;69979;53.682;-2.690;2023-08-12T12:23:50;100424.45;;;17.14;53.24
80620;BME280;69979;53.682;-2.690;2023-08-12T12:26:13;100419.20;;;17.23;52.42
80620;BME280;69979;53.682;-2.690;2023-08-12T12:28:38;100425.06;;;17.46;51.73
80620;BME280;69979;53.682;-2.690;2023-08-12T12:31:04;100410.94;;;17.98;50.89
80620;BME280;69979;53.682;-2.690;2023-08-12T12:33:29;100408.46;;;18.00;50.85
80620;BME280;69979;53.682;-2.690;2023-08-12T12:35:55;100409.12;;;17.86;49.43
80620;BME280;69979;53.682;-2.690;2023-08-12T12:38:20;100407.87;;;18.36;49.00